Time;durP1;ratioP1;P1;durP2;ratioP2;P2;SDS_P1;SDS_P2;PMS_P1;PMS_P2;Temp;Humidity;BMP_temperature;BMP_pressure;BME280_temperature;BME280_humidity;BME280_pressure;Samples;Min_cycle;Max_cycle;Signal;HPM_P1;HPM_P2
2020/12/15 00:01:21;;;;;;;15.03;11.47;;;;;;;;;;5055055;28;20237;-58
2020/12/15 00:03:47;;;;;;;13.40;12.00;;;;;;;;;;5050228;28;20209;-59
2020/12/15 00:06:13;;;;;;;13.83;12.27;;;;;;;;;;5050723;28;20467;-60
2020/12/15 00:08:38;;;;;;;12.73;11.53;;;;;;;;;;5035528;28;20963;-60
2020/12/15 00:11:03;;;;;;;12.67;11.27;;;;;;;;;;5035692;28;20323;-60
2020/12/15 00:13:29;;;;;;;13.40;11.87;;;;;;;;;;5035062;28;20608;-60
2020/12/15 00:15:54;;;;;;;14.90;11.63;;;;;;;;;;5035158;28;20312;-59
2020/12/15 00:18:19;;;;;;;14.20;11.43;;;;;;;;;;5035709;28;20230;-59
2020/12/15 00:20:44;;;;;;;13.43;11.50;;;;;;;;;;5054993;28;20577;-60
2020/12/15 00:23:10;;;;;;;20.07;12.93;;;;;;;;;;5055376;28;20270;-60
2020/12/15 00:25:35;;;;;;;12.77;11.47;;;;;;;;;;5054055;28;20217;-59
2020/12/15 00:28:00;;;;;;;14.10;12.00;;;;;;;;;;5055218;28;20232;-60
2020/12/15 00:30:25;;;;;;;15.90;13.13;;;;;;;;;;5054962;28;20226;-59
2020/12/15 00:32:51;;;;;;;13.50;12.20;;;;;;;;;;5054229;28;20252;-59
2020/12/15 00:35:17;;;;;;;13.37;11.00;;;;;;;;;;5054906;28;20560;-59
2020/12/15 00:37:42;;;;;;;13.83;12.40;;;;;;;;;;5055149;28;20275;-59
2020/12/15 00:40:07;;;;;;;13.10;11.53;;;;;;;;;;5055325;28;20245;-59
2020/12/15 00:42:32;;;;;;;12.27;11.10;;;;;;;;;;5054533;28;20219;-59
2020/12/15 00:44:58;;;;;;;11.93;10.70;;;;;;;;;;5054395;28;20225;-59
2020/12/15 00:47:23;;;;;;;12.30;11.00;;;;;;;;;;5055275;28;20236;-60
2020/12/15 00:49:49;;;;;;;12.77;11.20;;;;;;;;;;5054956;28;20228;-60
2020/12/15 00:52:14;;;;;;;15.10;13.00;;;;;;;;;;5057673;28;20565;-60
2020/12/15 00:54:39;;;;;;;14.90;11.87;;;;;;;;;;5058646;28;20218;-59
2020/12/15 00:57:05;;;;;;;13.80;12.00;;;;;;;;;;5059266;28;20552;-59
2020/12/15 00:59:30;;;;;;;11.27;10.07;;;;;;;;;;5058889;28;20305;-59
2020/12/15 01:01:59;;;;;;;11.70;10.50;;;;;;;;;;5058655;28;20634;-59
2020/12/15 01:04:24;;;;;;;13.60;12.13;;;;;;;;;;5058357;28;20549;-60
2020/12/15 01:06:49;;;;;;;12.57;11.30;;;;;;;;;;5058413;28;20421;-60
2020/12/15 01:09:15;;;;;;;13.33;12.00;;;;;;;;;;5058378;28;20279;-60
2020/12/15 01:11:40;;;;;;;13.97;12.43;;;;;;;;;;5058734;28;20296;-60
2020/12/15 01:14:05;;;;;;;14.20;10.80;;;;;;;;;;5058591;28;20243;-60
2020/12/15 01:16:30;;;;;;;13.50;12.10;;;;;;;;;;5058098;28;20308;-60
2020/12/15 01:18:56;;;;;;;12.53;11.23;;;;;;;;;;5058348;28;20720;-60
2020/12/15 01:21:28;;;;;;;12.50;11.07;;;;;;;;;;5058624;28;20240;-60
2020/12/15 01:23:54;;;;;;;15.30;13.27;;;;;;;;;;5060049;28;20659;-58
2020/12/15 01:26:21;;;;;;;14.40;12.00;;;;;;;;;;5059284;28;20459;-60
2020/12/15 01:28:46;;;;;;;15.43;12.30;;;;;;;;;;5059343;28;20488;-61
2020/12/15 01:31:11;;;;;;;12.80;10.83;;;;;;;;;;5054603;28;20470;-61
2020/12/15 01:33:37;;;;;;;13.70;10.90;;;;;;;;;;5058083;28;20255;-61
2020/12/15 01:36:03;;;;;;;14.40;12.93;;;;;;;;;;5066727;28;20668;-60
2020/12/15 01:38:28;;;;;;;11.93;10.60;;;;;;;;;;5066378;28;20674;-60
2020/12/15 01:40:54;;;;;;;12.73;11.40;;;;;;;;;;5064420;28;20559;-60
2020/12/15 01:43:23;;;;;;;12.97;11.60;;;;;;;;;;5069274;28;20228;-60
2020/12/15 01:45:48;;;;;;;12.03;10.57;;;;;;;;;;5071043;28;20212;-60
2020/12/15 01:48:14;;;;;;;12.37;11.17;;;;;;;;;;5055717;28;20466;-60
2020/12/15 01:50:40;;;;;;;12.03;10.83;;;;;;;;;;5062985;28;20306;-60
2020/12/15 01:53:09;;;;;;;12.20;10.97;;;;;;;;;;5069473;28;20300;-60
2020/12/15 01:55:36;;;;;;;11.43;10.33;;;;;;;;;;5070545;28;20552;-60
2020/12/15 01:58:02;;;;;;;12.40;11.10;;;;;;;;;;5065653;28;20469;-60
2020/12/15 02:00:27;;;;;;;14.90;12.97;;;;;;;;;;5045925;28;20462;-60
2020/12/15 02:02:53;;;;;;;10.87;9.77;;;;;;;;;;5068127;28;20228;-60
2020/12/15 02:05:18;;;;;;;12.93;11.50;;;;;;;;;;5066545;28;20220;-60
2020/12/15 02:07:45;;;;;;;11.20;10.10;;;;;;;;;;5066005;28;20215;-60
2020/12/15 02:10:10;;;;;;;12.00;10.77;;;;;;;;;;5063462;28;20228;-60
2020/12/15 02:12:36;;;;;;;13.13;10.60;;;;;;;;;;5068377;28;20490;-60
2020/12/15 02:15:06;;;;;;;11.33;10.13;;;;;;;;;;5070286;28;20525;-60
2020/12/15 02:17:32;;;;;;;12.70;11.37;;;;;;;;;;5065855;28;20236;-60
2020/12/15 02:20:15;;;;;;;10.43;9.43;;;;;;;;;;5063696;28;20497;-60
2020/12/15 02:22:41;;;;;;;13.53;12.27;;;;;;;;;;5065594;28;20444;-60
2020/12/15 02:25:08;;;;;;;11.73;10.10;;;;;;;;;;5069494;28;20461;-60
2020/12/15 02:27:33;;;;;;;11.53;10.53;;;;;;;;;;5067689;28;20237;-60
2020/12/15 02:29:59;;;;;;;12.33;11.03;;;;;;;;;;5063652;28;20463;-60
2020/12/15 02:32:24;;;;;;;11.23;10.13;;;;;;;;;;5063186;28;20224;-60
2020/12/15 02:34:56;;;;;;;11.83;10.60;;;;;;;;;;5062826;28;20224;-60
2020/12/15 02:37:21;;;;;;;12.67;11.17;;;;;;;;;;5051143;28;20227;-60
2020/12/15 02:39:47;;;;;;;11.40;10.30;;;;;;;;;;5062390;28;20456;-60
2020/12/15 02:42:12;;;;;;;13.37;11.97;;;;;;;;;;5069252;28;20224;-60
2020/12/15 02:44:37;;;;;;;11.33;10.23;;;;;;;;;;5069347;28;20285;-59
2020/12/15 02:47:03;;;;;;;11.80;10.30;;;;;;;;;;5063867;28;20310;-59
2020/12/15 02:49:28;;;;;;;11.70;10.40;;;;;;;;;;5062598;28;20692;-60
2020/12/15 02:51:53;;;;;;;12.53;11.23;;;;;;;;;;5069193;28;20263;-60
2020/12/15 02:54:19;;;;;;;12.80;10.67;;;;;;;;;;5069583;28;20224;-60
2020/12/15 02:56:44;;;;;;;10.43;9.43;;;;;;;;;;5069379;28;20221;-61
2020/12/15 02:59:10;;;;;;;14.67;11.97;;;;;;;;;;5068374;28;20227;-60
2020/12/15 03:01:43;;;;;;;11.17;10.00;;;;;;;;;;5062019;28;20228;-60
2020/12/15 03:04:09;;;;;;;11.47;10.33;;;;;;;;;;5063327;28;20222;-61
2020/12/15 03:06:35;;;;;;;12.03;9.63;;;;;;;;;;5069404;28;20460;-60
2020/12/15 03:09:00;;;;;;;12.27;11.07;;;;;;;;;;5068797;28;20231;-60
2020/12/15 03:11:26;;;;;;;13.73;11.10;;;;;;;;;;5061692;28;20236;-60
2020/12/15 03:13:51;;;;;;;13.07;11.57;;;;;;;;;;5063337;28;20594;-60
2020/12/15 03:16:17;;;;;;;15.87;12.23;;;;;;;;;;5069196;28;20542;-61
2020/12/15 03:18:42;;;;;;;13.53;11.83;;;;;;;;;;5063056;28;20297;-60
2020/12/15 03:21:08;;;;;;;14.27;12.20;;;;;;;;;;5069181;28;20233;-61
2020/12/15 03:23:34;;;;;;;11.87;10.60;;;;;;;;;;5060177;28;20656;-61
2020/12/15 03:25:59;;;;;;;11.37;10.13;;;;;;;;;;5069453;28;20529;-61
2020/12/15 03:28:24;;;;;;;11.97;10.30;;;;;;;;;;5055873;28;20561;-61
2020/12/15 03:30:50;;;;;;;13.13;11.73;;;;;;;;;;5060644;28;20228;-61
2020/12/15 03:33:16;;;;;;;12.87;10.80;;;;;;;;;;5066827;28;20232;-61
2020/12/15 03:35:41;;;;;;;10.90;9.90;;;;;;;;;;5071473;28;20604;-61
2020/12/15 03:38:06;;;;;;;13.23;11.80;;;;;;;;;;5065099;28;20550;-61
2020/12/15 03:40:32;;;;;;;13.80;11.03;;;;;;;;;;5064235;28;20293;-61
2020/12/15 03:42:57;;;;;;;12.87;11.57;;;;;;;;;;5073976;28;20282;-61
2020/12/15 03:45:22;;;;;;;12.50;10.50;;;;;;;;;;5064524;28;20235;-61
2020/12/15 03:47:47;;;;;;;12.97;10.90;;;;;;;;;;5059951;28;21751;-61
2020/12/15 03:50:13;;;;;;;13.13;11.00;;;;;;;;;;5074366;28;20245;-61
2020/12/15 03:52:38;;;;;;;13.53;11.87;;;;;;;;;;5063133;28;20708;-61
2020/12/15 03:55:04;;;;;;;12.33;11.07;;;;;;;;;;5068796;28;20224;-61
2020/12/15 03:57:29;;;;;;;14.03;12.67;;;;;;;;;;5066406;28;20217;-61
2020/12/15 03:59:54;;;;;;;14.20;12.70;;;;;;;;;;5062337;28;20482;-61
2020/12/15 04:02:20;;;;;;;13.83;12.53;;;;;;;;;;5063176;28;20248;-61
2020/12/15 04:04:45;;;;;;;11.97;10.70;;;;;;;;;;5068025;28;20281;-61
2020/12/15 04:07:10;;;;;;;13.57;11.03;;;;;;;;;;5067548;28;20223;-61
2020/12/15 04:09:35;;;;;;;12.97;11.67;;;;;;;;;;5068592;28;20315;-61
2020/12/15 04:12:01;;;;;;;12.53;11.23;;;;;;;;;;5067083;28;20293;-61
2020/12/15 04:14:26;;;;;;;14.53;13.03;;;;;;;;;;5061612;28;20307;-61
2020/12/15 04:16:51;;;;;;;12.40;11.10;;;;;;;;;;5063733;28;20671;-61
2020/12/15 04:19:16;;;;;;;14.10;12.43;;;;;;;;;;5068423;28;20300;-60
2020/12/15 04:21:42;;;;;;;14.70;13.10;;;;;;;;;;5062267;28;20290;-62
2020/12/15 04:24:07;;;;;;;14.83;11.90;;;;;;;;;;5065533;28;20303;-62
2020/12/15 04:26:32;;;;;;;15.20;11.63;;;;;;;;;;5065138;28;20254;-60
2020/12/15 04:28:57;;;;;;;13.63;12.13;;;;;;;;;;5072278;28;20568;-60
2020/12/15 04:31:28;;;;;;;12.83;11.37;;;;;;;;;;5069421;28;20234;-60
2020/12/15 04:33:53;;;;;;;14.50;13.10;;;;;;;;;;5059454;28;20216;-60
2020/12/15 04:36:21;;;;;;;14.80;13.20;;;;;;;;;;5072195;28;20473;-60
2020/12/15 04:38:46;;;;;;;14.30;12.80;;;;;;;;;;5064317;28;20675;-60
2020/12/15 04:41:11;;;;;;;13.63;12.33;;;;;;;;;;5071844;28;20462;-60
2020/12/15 04:43:37;;;;;;;15.73;13.07;;;;;;;;;;5065536;28;20631;-60
2020/12/15 04:46:02;;;;;;;15.40;13.00;;;;;;;;;;5064721;28;20556;-60
2020/12/15 04:48:28;;;;;;;14.50;13.10;;;;;;;;;;5070926;28;20232;-60
2020/12/15 04:50:58;;;;;;;15.03;13.43;;;;;;;;;;5071877;28;20229;-60
2020/12/15 04:53:26;;;;;;;13.80;12.40;;;;;;;;;;5065834;28;20659;-60
2020/12/15 04:55:54;;;;;;;15.77;14.07;;;;;;;;;;5063724;28;20517;-60
2020/12/15 04:58:20;;;;;;;17.37;14.37;;;;;;;;;;5069825;28;20474;-60
2020/12/15 05:00:46;;;;;;;12.90;11.57;;;;;;;;;;5071343;28;20464;-60
2020/12/15 05:03:14;;;;;;;17.20;14.00;;;;;;;;;;5066514;28;20476;-61
2020/12/15 05:05:39;;;;;;;15.20;13.60;;;;;;;;;;5064414;28;20248;-61
2020/12/15 05:08:05;;;;;;;15.30;13.53;;;;;;;;;;5069343;28;20910;-60
2020/12/15 05:10:30;;;;;;;15.90;12.70;;;;;;;;;;5070575;28;20625;-60
2020/12/15 05:12:56;;;;;;;15.93;14.00;;;;;;;;;;5047969;28;20278;-61
2020/12/15 05:15:21;;;;;;;14.13;12.70;;;;;;;;;;5077279;28;20227;-60
2020/12/15 05:17:47;;;;;;;14.80;13.27;;;;;;;;;;5064367;28;20332;-60
2020/12/15 05:20:17;;;;;;;14.13;11.90;;;;;;;;;;5073815;28;20231;-60
2020/12/15 05:22:44;;;;;;;17.70;13.47;;;;;;;;;;5063106;28;20724;-60
2020/12/15 05:25:30;;;;;;;14.47;12.97;;;;;;;;;;5071593;28;20429;-60
2020/12/15 05:27:57;;;;;;;15.70;12.37;;;;;;;;;;5067235;28;20456;-60
2020/12/15 05:30:23;;;;;;;14.63;13.00;;;;;;;;;;5063267;28;20461;-61
2020/12/15 05:32:50;;;;;;;16.50;14.20;;;;;;;;;;5065489;28;20473;-60
2020/12/15 05:35:22;;;;;;;15.30;12.93;;;;;;;;;;5073336;28;20296;-60
2020/12/15 05:37:47;;;;;;;16.23;13.77;;;;;;;;;;5068597;28;20455;-60
2020/12/15 05:40:13;;;;;;;14.70;13.20;;;;;;;;;;5064780;28;20477;-61
2020/12/15 05:42:38;;;;;;;14.57;13.07;;;;;;;;;;5063980;28;20254;-61
2020/12/15 05:45:05;;;;;;;17.77;15.27;;;;;;;;;;5076970;28;20281;-60
2020/12/15 05:47:31;;;;;;;16.93;13.47;;;;;;;;;;5065666;28;20231;-60
2020/12/15 05:49:58;;;;;;;16.07;14.47;;;;;;;;;;5070620;28;20762;-60
2020/12/15 05:52:27;;;;;;;15.93;14.30;;;;;;;;;;5070341;28;20943;-60
2020/12/15 05:55:04;;;;;;;15.73;13.10;;;;;;;;;;5063964;28;20472;-60
2020/12/15 05:57:30;;;;;;;17.07;14.77;;;;;;;;;;5064271;28;20462;-60
2020/12/15 06:00:05;;;;;;;15.07;12.93;;;;;;;;;;5068363;28;20514;-60
2020/12/15 06:02:31;;;;;;;17.37;13.43;;;;;;;;;;5071453;28;20587;-60
2020/12/15 06:04:58;;;;;;;15.77;14.03;;;;;;;;;;5065900;28;20943;-60
2020/12/15 06:07:24;;;;;;;16.83;14.33;;;;;;;;;;5063223;28;20563;-60
2020/12/15 06:09:50;;;;;;;15.70;13.63;;;;;;;;;;5066889;28;20468;-60
2020/12/15 06:12:16;;;;;;;15.27;13.60;;;;;;;;;;5069382;28;20456;-60
2020/12/15 06:14:41;;;;;;;18.97;14.77;;;;;;;;;;5065492;28;20551;-61
2020/12/15 06:17:07;;;;;;;15.97;14.27;;;;;;;;;;5062574;28;20558;-61
2020/12/15 06:19:34;;;;;;;15.23;13.50;;;;;;;;;;5073518;28;20251;-62
2020/12/15 06:22:01;;;;;;;16.40;13.03;;;;;;;;;;5063580;28;20224;-61
2020/12/15 06:24:30;;;;;;;15.87;14.20;;;;;;;;;;5071847;28;20469;-60
2020/12/15 06:27:00;;;;;;;18.40;14.13;;;;;;;;;;5062762;28;20434;-60
2020/12/15 06:29:31;;;;;;;16.53;14.20;;;;;;;;;;5066925;28;20509;-60
2020/12/15 06:31:56;;;;;;;15.20;13.07;;;;;;;;;;5069758;28;20458;-61
2020/12/15 06:34:30;;;;;;;17.67;14.80;;;;;;;;;;5066639;28;20472;-61
2020/12/15 06:36:56;;;;;;;15.33;13.37;;;;;;;;;;5063311;28;20284;-60
2020/12/15 06:39:23;;;;;;;18.20;14.93;;;;;;;;;;5062652;28;20437;-60
2020/12/15 06:42:03;;;;;;;16.67;14.87;;;;;;;;;;5049554;28;20498;-61
2020/12/15 06:44:33;;;;;;;15.97;14.27;;;;;;;;;;5063341;28;20546;-60
2020/12/15 06:46:59;;;;;;;18.20;14.00;;;;;;;;;;5067769;28;20462;-60
2020/12/15 06:49:32;;;;;;;15.87;14.27;;;;;;;;;;5069641;28;20837;-60
2020/12/15 06:51:59;;;;;;;17.17;15.40;;;;;;;;;;5066396;28;20771;-60
2020/12/15 06:54:33;;;;;;;19.10;15.30;;;;;;;;;;5062814;28;20463;-61
2020/12/15 06:57:08;;;;;;;16.57;14.80;;;;;;;;;;5065726;28;20463;-61
2020/12/15 06:59:40;;;;;;;16.27;14.57;;;;;;;;;;5069934;28;20452;-60
2020/12/15 07:02:15;;;;;;;16.60;14.73;;;;;;;;;;5068620;28;20523;-61
2020/12/15 07:04:42;;;;;;;17.77;14.30;;;;;;;;;;5050803;28;20943;-61
2020/12/15 07:07:08;;;;;;;16.40;14.67;;;;;;;;;;5062964;28;20456;-60
2020/12/15 07:09:33;;;;;;;16.63;14.67;;;;;;;;;;5068671;28;21084;-61
2020/12/15 07:12:02;;;;;;;16.70;13.90;;;;;;;;;;5069202;28;20682;-60
2020/12/15 07:14:27;;;;;;;20.47;15.00;;;;;;;;;;5063938;28;20212;-61
2020/12/15 07:16:55;;;;;;;18.20;14.83;;;;;;;;;;5062579;28;20799;-61
2020/12/15 07:19:22;;;;;;;15.20;13.63;;;;;;;;;;5073861;28;20602;-61
2020/12/15 07:21:47;;;;;;;17.53;15.70;;;;;;;;;;5062513;28;20498;-61
2020/12/15 07:24:13;;;;;;;15.80;14.10;;;;;;;;;;5071098;28;20920;-61
2020/12/15 07:26:38;;;;;;;15.73;14.03;;;;;;;;;;5063027;28;20287;-60
2020/12/15 07:29:07;;;;;;;16.43;14.13;;;;;;;;;;5067429;28;20235;-60
2020/12/15 07:31:32;;;;;;;17.50;14.70;;;;;;;;;;5068787;28;20587;-60
2020/12/15 07:34:15;;;;;;;16.20;13.77;;;;;;;;;;5064060;28;20436;-60
2020/12/15 07:36:41;;;;;;;17.10;14.93;;;;;;;;;;5067205;28;20209;-60
2020/12/15 07:39:07;;;;;;;17.13;15.33;;;;;;;;;;5060783;28;20454;-60
2020/12/15 07:41:38;;;;;;;16.63;14.93;;;;;;;;;;5068902;28;20470;-60
2020/12/15 07:44:12;;;;;;;17.13;14.97;;;;;;;;;;5067308;28;20485;-62
2020/12/15 07:46:44;;;;;;;19.20;15.17;;;;;;;;;;5062237;28;20507;-61
2020/12/15 07:49:09;;;;;;;17.07;14.40;;;;;;;;;;5061459;28;20509;-60
2020/12/15 07:51:37;;;;;;;18.70;16.37;;;;;;;;;;5068708;28;20466;-61
2020/12/15 07:54:03;;;;;;;18.47;15.40;;;;;;;;;;5068864;28;20566;-61
2020/12/15 07:56:28;;;;;;;19.97;15.97;;;;;;;;;;5062742;28;20453;-61
2020/12/15 07:58:54;;;;;;;17.80;15.27;;;;;;;;;;5052532;28;20660;-61
2020/12/15 08:01:24;;;;;;;19.50;15.77;;;;;;;;;;5070340;28;20213;-61
2020/12/15 08:04:02;;;;;;;18.93;16.30;;;;;;;;;;5071958;28;20530;-61
2020/12/15 08:06:32;;;;;;;16.57;14.83;;;;;;;;;;5067528;28;20552;-60
2020/12/15 08:08:58;;;;;;;17.60;15.37;;;;;;;;;;5065592;28;20470;-61
2020/12/15 08:11:23;;;;;;;20.67;18.47;;;;;;;;;;5069366;28;20470;-60
2020/12/15 08:13:49;;;;;;;19.33;16.70;;;;;;;;;;5070985;28;20491;-63
2020/12/15 08:16:15;;;;;;;18.30;15.90;;;;;;;;;;5066626;28;20217;-62
2020/12/15 08:18:42;;;;;;;18.80;16.50;;;;;;;;;;5062229;28;20209;-62
2020/12/15 08:21:13;;;;;;;17.07;14.30;;;;;;;;;;5066981;28;20500;-63
2020/12/15 08:23:50;;;;;;;19.17;16.83;;;;;;;;;;5063931;28;20469;-63
2020/12/15 08:26:17;;;;;;;19.13;16.73;;;;;;;;;;5066678;28;20534;-62
2020/12/15 08:28:43;;;;;;;18.20;14.30;;;;;;;;;;5071639;28;20447;-61
2020/12/15 08:31:10;;;;;;;17.13;15.33;;;;;;;;;;5069443;28;20462;-61
2020/12/15 08:33:35;;;;;;;17.20;15.37;;;;;;;;;;5064563;28;20492;-62
2020/12/15 08:36:01;;;;;;;18.57;16.57;;;;;;;;;;5073959;28;20806;-62
2020/12/15 08:38:26;;;;;;;18.47;16.47;;;;;;;;;;5064984;28;20224;-62
2020/12/15 08:40:58;;;;;;;16.70;15.10;;;;;;;;;;5069137;28;20266;-62
2020/12/15 08:43:23;;;;;;;18.03;15.60;;;;;;;;;;5063837;28;20252;-62
2020/12/15 08:45:49;;;;;;;16.73;14.93;;;;;;;;;;5047595;28;20437;-62
2020/12/15 08:48:19;;;;;;;18.80;15.20;;;;;;;;;;5070483;28;20216;-62
2020/12/15 08:50:45;;;;;;;16.57;14.80;;;;;;;;;;5070387;28;20432;-63
2020/12/15 08:53:11;;;;;;;17.37;13.90;;;;;;;;;;5063896;28;20462;-63
2020/12/15 08:55:38;;;;;;;15.63;14.03;;;;;;;;;;5064831;28;20546;-63
2020/12/15 08:58:05;;;;;;;17.00;14.67;;;;;;;;;;5069422;28;20237;-62
2020/12/15 09:00:34;;;;;;;18.40;16.10;;;;;;;;;;5070037;28;20516;-63
2020/12/15 09:03:06;;;;;;;17.13;14.40;;;;;;;;;;5055274;28;20533;-62
2020/12/15 09:05:32;;;;;;;17.90;16.00;;;;;;;;;;5059012;28;20467;-62
2020/12/15 09:08:04;;;;;;;15.97;14.40;;;;;;;;;;5069459;28;20490;-62
2020/12/15 09:10:30;;;;;;;17.13;15.33;;;;;;;;;;5063103;28;20245;-63
2020/12/15 09:12:55;;;;;;;18.50;16.50;;;;;;;;;;5064625;28;20466;-62
2020/12/15 09:15:21;;;;;;;16.47;15.07;;;;;;;;;;5063421;28;20743;-62
2020/12/15 09:17:46;;;;;;;18.17;16.17;;;;;;;;;;5068377;28;20238;-62
2020/12/15 09:20:22;;;;;;;16.03;14.23;;;;;;;;;;5062553;28;20259;-62
2020/12/15 09:22:48;;;;;;;18.77;15.30;;;;;;;;;;5067273;28;20240;-62
2020/12/15 09:25:14;;;;;;;15.93;14.30;;;;;;;;;;5069680;28;20466;-63
2020/12/15 09:27:44;;;;;;;17.67;15.43;;;;;;;;;;5065960;28;20275;-62
2020/12/15 09:30:09;;;;;;;17.80;15.90;;;;;;;;;;5062635;28;20636;-62
2020/12/15 09:32:35;;;;;;;16.47;14.27;;;;;;;;;;5064631;28;20478;-62
2020/12/15 09:35:00;;;;;;;18.43;15.17;;;;;;;;;;5069064;28;20221;-61
2020/12/15 09:37:25;;;;;;;17.77;15.97;;;;;;;;;;5072359;28;20233;-62
2020/12/15 09:39:51;;;;;;;17.83;15.50;;;;;;;;;;5069575;28;20235;-62
2020/12/15 09:42:19;;;;;;;17.40;15.53;;;;;;;;;;5065059;28;20222;-62
2020/12/15 09:44:44;;;;;;;16.80;15.00;;;;;;;;;;5059817;28;20575;-62
2020/12/15 09:47:10;;;;;;;17.43;15.63;;;;;;;;;;5065377;28;20472;-63
2020/12/15 09:49:35;;;;;;;15.37;13.40;;;;;;;;;;5062590;28;20661;-62
2020/12/15 09:52:00;;;;;;;20.20;15.53;;;;;;;;;;5066598;28;20320;-63
2020/12/15 09:54:26;;;;;;;20.13;17.43;;;;;;;;;;5069107;28;20229;-62
2020/12/15 09:56:51;;;;;;;20.70;16.80;;;;;;;;;;5064862;28;20232;-63
2020/12/15 09:59:16;;;;;;;18.13;16.17;;;;;;;;;;5061804;28;20232;-62
2020/12/15 10:01:42;;;;;;;17.37;15.50;;;;;;;;;;5067509;28;20321;-62
2020/12/15 10:04:07;;;;;;;17.27;14.77;;;;;;;;;;5056481;28;20225;-63
2020/12/15 10:06:33;;;;;;;18.10;16.30;;;;;;;;;;5068172;28;20237;-62
2020/12/15 10:08:58;;;;;;;19.53;16.57;;;;;;;;;;5068380;28;20304;-62
2020/12/15 10:11:25;;;;;;;18.23;16.43;;;;;;;;;;5058296;28;20241;-63
2020/12/15 10:13:50;;;;;;;20.10;15.30;;;;;;;;;;5069007;28;20218;-62
2020/12/15 10:16:15;;;;;;;18.67;16.67;;;;;;;;;;5061921;28;20472;-62
2020/12/15 10:18:40;;;;;;;17.60;15.70;;;;;;;;;;5061584;28;20728;-62
2020/12/15 10:21:06;;;;;;;21.40;15.70;;;;;;;;;;5068209;28;20221;-62
2020/12/15 10:23:33;;;;;;;19.43;17.20;;;;;;;;;;5061262;28;20250;-63
2020/12/15 10:25:58;;;;;;;20.97;15.67;;;;;;;;;;5048625;28;20668;-63
2020/12/15 10:28:24;;;;;;;20.70;16.47;;;;;;;;;;5062129;28;20459;-64
2020/12/15 10:30:49;;;;;;;16.07;14.37;;;;;;;;;;5068553;28;20221;-63
2020/12/15 10:33:14;;;;;;;17.03;14.20;;;;;;;;;;5057489;28;20229;-63
2020/12/15 10:35:40;;;;;;;17.00;15.00;;;;;;;;;;5071577;28;20284;-62
2020/12/15 10:38:05;;;;;;;18.23;15.13;;;;;;;;;;5063894;28;20226;-62
2020/12/15 10:40:31;;;;;;;17.63;15.83;;;;;;;;;;5063652;28;20532;-62
2020/12/15 10:42:56;;;;;;;15.33;13.73;;;;;;;;;;5061567;28;20219;-62
2020/12/15 10:45:21;;;;;;;19.70;16.60;;;;;;;;;;5065579;28;20218;-65
2020/12/15 10:47:48;;;;;;;17.37;15.57;;;;;;;;;;5068552;28;20614;-62
2020/12/15 10:50:15;;;;;;;17.93;15.10;;;;;;;;;;5063297;28;20224;-62
2020/12/15 10:52:40;;;;;;;19.53;16.03;;;;;;;;;;5061382;28;20463;-62
2020/12/15 10:55:05;;;;;;;18.77;16.80;;;;;;;;;;5065194;28;20472;-63
2020/12/15 10:57:31;;;;;;;18.47;15.77;;;;;;;;;;5058978;28;20304;-63
2020/12/15 10:59:56;;;;;;;19.90;17.77;;;;;;;;;;5063965;28;20295;-63
2020/12/15 11:02:21;;;;;;;16.87;15.10;;;;;;;;;;5060908;28;20225;-63
2020/12/15 11:04:46;;;;;;;20.47;14.53;;;;;;;;;;5065649;28;20223;-63
2020/12/15 11:07:12;;;;;;;20.30;15.57;;;;;;;;;;5067406;28;20304;-62
2020/12/15 11:09:37;;;;;;;19.23;16.00;;;;;;;;;;5062867;28;20256;-62
2020/12/15 11:12:02;;;;;;;17.00;14.77;;;;;;;;;;5071768;28;20230;-62
2020/12/15 11:14:28;;;;;;;17.43;15.40;;;;;;;;;;5062388;28;20313;-62
2020/12/15 11:16:53;;;;;;;17.80;15.60;;;;;;;;;;5060714;28;20238;-62
2020/12/15 11:19:18;;;;;;;17.63;15.80;;;;;;;;;;5063549;28;20297;-63
2020/12/15 11:21:44;;;;;;;22.60;16.90;;;;;;;;;;5067663;28;20239;-63
2020/12/15 11:24:09;;;;;;;18.10;15.20;;;;;;;;;;5061100;28;20300;-62
2020/12/15 11:26:34;;;;;;;17.63;15.77;;;;;;;;;;5060649;28;20220;-62
2020/12/15 11:29:00;;;;;;;18.10;15.77;;;;;;;;;;5066861;28;20216;-62
2020/12/15 11:31:25;;;;;;;19.17;15.53;;;;;;;;;;5066749;28;20315;-63
2020/12/15 11:33:50;;;;;;;18.57;15.90;;;;;;;;;;5061356;28;20225;-64
2020/12/15 11:36:16;;;;;;;17.67;15.73;;;;;;;;;;5068821;28;20647;-63
2020/12/15 11:38:44;;;;;;;16.60;14.87;;;;;;;;;;5059888;28;20715;-62
2020/12/15 11:41:09;;;;;;;21.20;14.80;;;;;;;;;;5066717;28;20681;-62
2020/12/15 11:43:34;;;;;;;17.53;15.70;;;;;;;;;;5061011;28;20506;-63
2020/12/15 11:46:00;;;;;;;16.30;14.70;;;;;;;;;;5060445;28;20229;-62
2020/12/15 11:48:25;;;;;;;18.83;16.27;;;;;;;;;;5066867;28;20297;-62
2020/12/15 11:50:50;;;;;;;18.43;16.33;;;;;;;;;;5066800;28;20248;-63
2020/12/15 11:53:16;;;;;;;17.67;15.60;;;;;;;;;;5059990;28;20219;-63
2020/12/15 11:55:41;;;;;;;19.77;15.60;;;;;;;;;;5060427;28;20306;-62
2020/12/15 11:58:06;;;;;;;19.03;16.57;;;;;;;;;;5066827;28;20518;-62
2020/12/15 12:00:32;;;;;;;18.20;15.80;;;;;;;;;;5067008;28;20218;-63
2020/12/15 12:02:57;;;;;;;18.80;16.80;;;;;;;;;;5047069;28;20620;-62
2020/12/15 12:05:22;;;;;;;16.47;14.70;;;;;;;;;;5059710;28;20221;-62
2020/12/15 12:07:47;;;;;;;18.50;15.77;;;;;;;;;;5055822;28;20242;-62
2020/12/15 12:10:13;;;;;;;19.47;16.00;;;;;;;;;;5062518;28;20251;-62
2020/12/15 12:12:39;;;;;;;16.90;14.60;;;;;;;;;;5060201;28;20219;-62
2020/12/15 12:15:04;;;;;;;16.33;14.67;;;;;;;;;;5060407;28;20606;-63
2020/12/15 12:17:29;;;;;;;16.00;13.70;;;;;;;;;;5065269;28;20234;-62
2020/12/15 12:19:55;;;;;;;17.80;15.37;;;;;;;;;;5065845;28;20247;-63
2020/12/15 12:22:20;;;;;;;16.87;14.60;;;;;;;;;;5059326;28;20686;-62
2020/12/15 12:24:45;;;;;;;19.30;15.53;;;;;;;;;;5067281;28;20212;-63
2020/12/15 12:27:11;;;;;;;17.10;13.93;;;;;;;;;;5059161;28;20406;-64
2020/12/15 12:29:36;;;;;;;16.77;14.63;;;;;;;;;;5061303;28;20231;-62
2020/12/15 12:32:01;;;;;;;17.17;12.87;;;;;;;;;;5065777;28;20232;-62
2020/12/15 12:34:27;;;;;;;16.23;14.27;;;;;;;;;;5062233;28;20636;-63
2020/12/15 12:36:52;;;;;;;17.10;13.33;;;;;;;;;;5066445;28;20228;-63
2020/12/15 12:39:17;;;;;;;15.90;14.27;;;;;;;;;;5059032;28;20308;-63
2020/12/15 12:41:42;;;;;;;15.47;13.80;;;;;;;;;;5064146;28;20227;-63
2020/12/15 12:44:08;;;;;;;16.47;13.23;;;;;;;;;;5061142;28;20306;-64
2020/12/15 12:46:33;;;;;;;15.23;13.63;;;;;;;;;;5065764;28;20652;-62
2020/12/15 12:48:58;;;;;;;15.47;13.60;;;;;;;;;;5068230;28;20306;-62
2020/12/15 12:51:28;;;;;;;16.23;14.53;;;;;;;;;;5062160;28;20568;-63
2020/12/15 12:53:53;;;;;;;17.03;13.53;;;;;;;;;;5066277;28;20310;-63
2020/12/15 12:56:18;;;;;;;17.53;15.10;;;;;;;;;;5070029;28;20591;-63
2020/12/15 12:58:44;;;;;;;15.23;13.23;;;;;;;;;;5067180;28;20221;-62
2020/12/15 13:01:09;;;;;;;15.33;13.70;;;;;;;;;;5062817;28;20689;-62
2020/12/15 13:03:34;;;;;;;17.03;14.30;;;;;;;;;;5066059;28;20221;-62
2020/12/15 13:06:00;;;;;;;14.53;12.97;;;;;;;;;;5069872;28;20701;-62
2020/12/15 13:08:25;;;;;;;15.03;13.20;;;;;;;;;;5066394;28;20307;-63
2020/12/15 13:10:50;;;;;;;15.37;13.70;;;;;;;;;;5061031;28;20244;-63
2020/12/15 13:13:16;;;;;;;15.33;13.73;;;;;;;;;;5066044;28;20255;-63
2020/12/15 13:15:41;;;;;;;15.43;13.87;;;;;;;;;;5062991;28;20212;-63
2020/12/15 13:18:07;;;;;;;18.20;15.07;;;;;;;;;;5066410;28;20264;-63
2020/12/15 13:20:33;;;;;;;17.10;14.50;;;;;;;;;;5069282;28;20679;-64
2020/12/15 13:22:58;;;;;;;18.40;15.27;;;;;;;;;;5063567;28;20456;-64
2020/12/15 13:25:23;;;;;;;16.80;14.63;;;;;;;;;;5069392;28;20236;-63
2020/12/15 13:27:49;;;;;;;17.20;13.40;;;;;;;;;;5065996;28;20675;-63
2020/12/15 13:30:14;;;;;;;14.97;13.47;;;;;;;;;;5062232;28;20313;-62
2020/12/15 13:32:39;;;;;;;19.20;14.83;;;;;;;;;;5071692;28;20281;-62
2020/12/15 13:35:05;;;;;;;15.03;13.17;;;;;;;;;;5065571;28;20235;-63
2020/12/15 13:37:30;;;;;;;16.33;14.13;;;;;;;;;;5060584;28;20540;-63
2020/12/15 13:39:55;;;;;;;14.43;12.80;;;;;;;;;;5037478;28;20241;-64
2020/12/15 13:42:21;;;;;;;16.40;14.53;;;;;;;;;;5034613;28;20234;-63
2020/12/15 13:44:46;;;;;;;18.20;13.40;;;;;;;;;;5036138;28;20320;-64
2020/12/15 13:47:13;;;;;;;19.30;14.27;;;;;;;;;;5035916;28;20260;-63
2020/12/15 13:49:38;;;;;;;18.37;14.00;;;;;;;;;;5036186;28;20235;-63
2020/12/15 13:52:04;;;;;;;15.00;13.40;;;;;;;;;;5036244;28;20459;-63
2020/12/15 13:54:31;;;;;;;16.77;14.73;;;;;;;;;;5035571;28;20328;-63
2020/12/15 13:56:56;;;;;;;16.90;12.83;;;;;;;;;;5035984;28;20284;-63
2020/12/15 13:59:21;;;;;;;15.00;13.10;;;;;;;;;;5034666;28;20512;-63
2020/12/15 14:01:49;;;;;;;17.53;12.87;;;;;;;;;;5035964;28;20220;-64
2020/12/15 14:04:15;;;;;;;15.33;12.97;;;;;;;;;;5035405;28;20216;-63
2020/12/15 14:06:41;;;;;;;15.23;13.17;;;;;;;;;;5035964;28;20436;-63
2020/12/15 14:09:06;;;;;;;16.70;15.00;;;;;;;;;;5035812;28;20918;-63
2020/12/15 14:11:32;;;;;;;19.80;14.50;;;;;;;;;;5057221;28;20562;-63